CheckWX is a tool to help pilots better visualize weather data.  It is not intended as a substitute for an official pre-flight weather briefing.

07:43:44 UTC

KINT TAF
Smith Reynolds Airport
Winston Salem, North Carolina, USA
KINT 190540Z 1906/2006 VRB02KT P6SM VCSH SCT040 SCT110 BKN250 FM190700 VRB02KT 6SM -SHRA BR BKN015 BKN040 TEMPO 1907/1909 2SM -TSRA BR BKN015 BKN040CB OVC080 FM191300 22008KT P6SM VCSH SCT025 BKN100 PROB30 1919/1923 VRB15G25KT 5SM -TSRA BKN040CB BKN110

Jun-19@
06:00 UTC

Jun-19 @ 06:00 UTC

Jun-19@
07:00 UTC

Jun-19 @ 07:00 UTC

KINT 190540Z 1906/2006 VRB02KT P6SM VCSH SCT040 SCT110 BKN250

Expired

Wind
  • Variable at 2 KTS
Cloud Levels
  • Scattered at 4,000' AGL
  • Scattered at 11,000' AGL
  • Broken at 25,000' AGL

Jun-19@
07:00 UTC

Jun-19 @ 07:00 UTC

Jun-19@
09:00 UTC

Jun-19 @ 09:00 UTC

TEMPO 1907/1909 2SM -TSRA BR BKN015 BKN040CB OVC080

Temporary

Temporary Changes expected for less than half the time period

Conditions
Light Thunderstorm, Light Rain, Mist
Cloud Levels
  • Broken at 1,500' AGL
  • Broken at 4,000' AGL
  • Overcast at 8,000' AGL

Jun-19@
07:00 UTC

Jun-19 @ 07:00 UTC

Jun-19@
13:00 UTC

Jun-19 @ 13:00 UTC

FM190700 VRB02KT 6SM -SHRA BR BKN015 BKN040

From

From Standard forecast or significant change

Wind
  • Variable at 2 KTS
Conditions
Light Rain, Mist
Cloud Levels
  • Broken at 1,500' AGL
  • Broken at 4,000' AGL

Jun-19@
13:00 UTC

Jun-19 @ 13:00 UTC

Jun-20@
06:00 UTC

Jun-20 @ 06:00 UTC

FM191300 22008KT P6SM VCSH SCT025 BKN100

From

From Standard forecast or significant change

Wind
  • 220° at 8 KTS
Cloud Levels
  • Scattered at 2,500' AGL
  • Broken at 10,000' AGL

Jun-19@
19:00 UTC

Jun-19 @ 19:00 UTC

Jun-19@
23:00 UTC

Jun-19 @ 23:00 UTC

PROB30 1919/1923 VRB15G25KT 5SM -TSRA BKN040CB BKN110

Probable - 30% Likelihood

Probable - 30% Likelihood during this time.

Wind
  • Variable at 15 KTS
  • {Gusting to 25 KTS
Conditions
Light Thunderstorm, Light Rain
Cloud Levels
  • Broken at 4,000' AGL
  • Broken at 11,000' AGL